Time;durP1;ratioP1;P1;durP2;ratioP2;P2;SDS_P1;SDS_P2;PMS_P1;PMS_P2;Temp;Humidity;BMP_temperature;BMP_pressure;BME280_temperature;BME280_humidity;BME280_pressure;Samples;Min_cycle;Max_cycle;Signal;HPM_P1;HPM_P2
2022/08/27 00:00:23;;;;;;;;;3.50;3.50;;;;;22.56;52.73;101070.88;5092805;28;45207;-83
2022/08/27 00:02:51;;;;;;;;;2.25;2.25;;;;;22.73;53.22;101096.63;5093034;28;45013;-83
2022/08/27 00:05:18;;;;;;;;;4.00;3.00;;;;;22.57;53.27;101079.81;5093094;28;45025;-84
2022/08/27 00:07:44;;;;;;;;;4.25;4.00;;;;;22.69;53.54;101090.38;5092444;28;44995;-82
2022/08/27 00:10:13;;;;;;;;;4.00;3.00;;;;;22.64;53.37;101089.53;5092640;28;47195;-83
2022/08/27 00:12:40;;;;;;;;;3.00;3.00;;;;;22.60;53.48;101080.63;5093135;28;45547;-83
2022/08/27 00:15:06;;;;;;;;;2.50;2.50;;;;;22.50;54.05;101062.88;5092506;27;45271;-84
2022/08/27 00:17:32;;;;;;;;;2.00;2.00;;;;;22.53;53.52;101072.69;5093381;28;45057;-84
2022/08/27 00:19:58;;;;;;;;;3.75;3.25;;;;;22.51;53.52;101070.03;5092891;28;45150;-84
2022/08/27 00:22:23;;;;;;;;;3.00;3.00;;;;;22.58;53.66;101082.44;5092633;28;45032;-84
2022/08/27 00:24:48;;;;;;;;;4.00;4.00;;;;;22.57;54.00;101082.47;5092353;28;51172;-83
2022/08/27 00:27:13;;;;;;;;;3.00;3.00;;;;;22.57;53.92;101082.47;5091045;28;47638;-82
2022/08/27 00:29:39;;;;;;;;;4.00;3.50;;;;;22.59;54.03;101088.69;5074247;28;47308;-84
2022/08/27 00:32:04;;;;;;;;;3.00;3.00;;;;;22.57;54.36;101088.72;5092661;28;44885;-84
2022/08/27 00:34:30;;;;;;;;;3.00;2.50;;;;;22.45;53.91;101072.75;5093036;28;45077;-83
2022/08/27 00:36:56;;;;;;;;;4.00;3.00;;;;;22.44;54.29;101070.97;5092225;28;44973;-83
2022/08/27 00:39:21;;;;;;;;;3.00;3.00;;;;;22.39;54.30;101064.78;5092116;28;45157;-83
2022/08/27 00:41:47;;;;;;;;;2.75;2.75;;;;;22.43;54.55;101082.59;5073737;28;45248;-84
2022/08/27 00:44:12;;;;;;;;;2.00;2.00;;;;;22.40;54.33;101080.81;5092435;28;44921;-84
2022/08/27 00:46:42;;;;;;;;;3.00;3.00;;;;;22.37;54.52;101090.69;5092562;28;45075;-83
2022/08/27 00:49:25;;;;;;;;;4.25;4.00;;;;;22.23;54.48;101061.34;5092405;28;45576;-83
2022/08/27 00:52:13;;;;;;;;;2.50;2.00;;;;;22.24;54.59;101062.22;5092167;28;45202;-84
2022/08/27 00:54:38;;;;;;;;;3.00;3.00;;;;;22.31;54.81;101071.97;5092633;28;45199;-84
2022/08/27 00:57:05;;;;;;;;;3.00;3.00;;;;;22.24;54.78;101059.56;5091290;28;45005;-83
2022/08/27 00:59:31;;;;;;;;;3.00;3.00;;;;;22.21;54.61;101055.09;5090779;28;45529;-82
2022/08/27 01:04:46;;;;;;;;;4.00;3.75;;;;;22.23;55.12;101065.81;5092123;28;45024;-83
2022/08/27 01:07:13;;;;;;;;;4.00;4.00;;;;;22.21;54.79;101072.94;5091919;28;45147;-84
2022/08/27 01:09:39;;;;;;;;;3.00;3.00;;;;;22.18;54.98;101060.50;5091983;28;45609;-83
2022/08/27 01:12:05;;;;;;;;;3.00;3.00;;;;;22.22;55.13;101082.78;5090272;28;45513;-84
2022/08/27 01:14:30;;;;;;;;;3.00;2.50;;;;;22.25;55.32;101088.09;5091815;28;45155;-83
2022/08/27 01:16:59;;;;;;;;;3.25;3.25;;;;;22.03;55.42;101053.44;5092190;28;45188;-82
2022/08/27 01:19:31;;;;;;;;;3.25;3.25;;;;;22.27;55.67;101094.34;5092013;28;45207;-83
2022/08/27 01:22:08;;;;;;;;;4.50;3.75;;;;;22.12;55.64;101056.09;5091870;28;45128;-83
2022/08/27 01:24:42;;;;;;;;;4.50;4.50;;;;;22.20;55.53;101079.22;5092132;27;44950;-83
2022/08/27 01:27:12;;;;;;;;;3.25;3.25;;;;;22.14;55.37;101069.44;5089874;28;45160;-82
2022/08/27 01:29:38;;;;;;;;;4.00;4.00;;;;;22.22;55.42;101083.66;5091298;28;46717;-82
2022/08/27 01:32:08;;;;;;;;;3.00;3.00;;;;;22.08;55.42;101064.13;5091848;28;45021;-83
2022/08/27 01:34:34;;;;;;;;;3.75;2.75;;;;;22.22;55.58;101083.66;5092307;28;45184;-82
2022/08/27 01:36:59;;;;;;;;;4.25;3.25;;;;;22.06;55.59;101061.41;5091611;28;44970;-82
2022/08/27 01:39:24;;;;;;;;;4.00;3.50;;;;;22.21;55.65;101080.97;5092019;28;45577;-83
2022/08/27 01:41:50;;;;;;;;;5.00;5.00;;;;;22.24;55.88;101080.97;5090594;28;52752;-82
2022/08/27 01:44:15;;;;;;;;;3.75;3.00;;;;;22.14;55.29;101059.63;5091988;28;45013;-82
2022/08/27 01:46:41;;;;;;;;;4.50;4.00;;;;;22.15;55.51;101061.38;5091606;28;45334;-83
2022/08/27 01:49:09;;;;;;;;;3.50;3.00;;;;;22.23;55.84;101077.41;5091509;28;44987;-83
2022/08/27 01:51:34;;;;;;;;;5.00;4.25;;;;;22.22;55.84;101077.44;5091468;28;45233;-83
2022/08/27 01:54:00;;;;;;;;;4.25;3.00;;;;;22.21;55.77;101076.50;5091570;28;44874;-84
2022/08/27 01:56:25;;;;;;;;;3.00;3.00;;;;;22.21;55.89;101064.91;5091097;28;44903;-84
2022/08/27 01:58:51;;;;;;;;;3.25;3.00;;;;;22.09;56.08;101045.34;5091610;28;45244;-83
2022/08/27 02:01:16;;;;;;;;;5.25;4.25;;;;;22.13;56.25;101054.28;5091679;28;45144;-82
2022/08/27 02:03:43;;;;;;;;;4.00;3.50;;;;;22.21;56.21;101067.59;5091396;28;44918;-82
2022/08/27 02:06:10;;;;;;;;;3.00;3.00;;;;;22.23;56.34;101073.84;5091203;28;44967;-82
2022/08/27 02:08:35;;;;;;;;;4.00;4.00;;;;;22.07;56.06;101044.50;5072377;28;46741;-83
2022/08/27 02:11:01;;;;;;;;;4.00;3.50;;;;;22.21;56.44;101070.28;5091006;28;45206;-82
2022/08/27 02:13:27;;;;;;;;;3.00;3.00;;;;;22.15;56.37;101071.22;5091752;28;45101;-82
2022/08/27 02:15:52;;;;;;;;;3.00;3.00;;;;;22.17;56.02;101079.22;5090067;28;44962;-82
2022/08/27 02:18:18;;;;;;;;;3.25;3.25;;;;;22.10;56.41;101062.28;5091038;28;45067;-83
2022/08/27 02:20:46;;;;;;;;;3.50;3.25;;;;;22.10;56.44;101079.25;5091263;28;45056;-83
2022/08/27 02:23:12;;;;;;;;;4.00;4.00;;;;;22.07;56.25;101065.91;5091036;28;44969;-83
2022/08/27 02:25:37;;;;;;;;;4.00;3.00;;;;;22.13;56.69;101073.03;5090687;28;45093;-82
2022/08/27 02:28:04;;;;;;;;;4.00;4.00;;;;;22.13;56.56;101067.69;5090693;28;45441;-82
2022/08/27 02:30:32;;;;;;;;;4.00;4.00;;;;;22.10;56.44;101068.53;5090987;28;45346;-83
2022/08/27 02:33:02;;;;;;;;;3.00;3.00;;;;;22.09;56.54;101058.75;5091052;28;45241;-82
2022/08/27 02:35:29;;;;;;;;;2.75;2.00;;;;;22.12;56.62;101072.16;5090681;28;44876;-82
2022/08/27 02:37:55;;;;;;;;;5.00;4.75;;;;;22.07;56.46;101068.59;5092731;27;45575;-82
2022/08/27 02:40:23;;;;;;;;;3.50;3.50;;;;;22.01;57.00;101059.69;5093617;28;45161;-83
2022/08/27 02:42:49;;;;;;;;;4.00;4.00;;;;;21.88;57.01;101041.06;5092466;28;45056;-83
2022/08/27 02:45:15;;;;;;;;;4.25;4.00;;;;;22.02;57.05;101069.47;5094509;28;44994;-82
2022/08/27 02:47:41;;;;;;;;;4.00;4.00;;;;;22.00;57.04;101069.50;5094329;28;45876;-83
2022/08/27 02:50:07;;;;;;;;;4.25;4.00;;;;;21.99;57.43;101065.06;5094118;28;45079;-84
2022/08/27 02:52:33;;;;;;;;;3.00;3.00;;;;;21.99;57.23;101059.72;5093963;28;44931;-83
2022/08/27 02:54:58;;;;;;;;;3.50;3.50;;;;;21.99;57.15;101062.38;5094683;28;44903;-83
2022/08/27 02:57:24;;;;;;;;;3.25;2.50;;;;;21.82;57.16;101029.47;5093344;28;45605;-83
2022/08/27 02:59:50;;;;;;;;;3.25;3.00;;;;;21.85;57.21;101037.50;5094460;28;45052;-82
2022/08/27 03:02:16;;;;;;;;;3.75;3.75;;;;;21.95;57.13;101060.63;5094033;28;45104;-83
2022/08/27 03:04:42;;;;;;;;;4.00;4.00;;;;;21.93;57.06;101059.75;5093882;28;45041;-83
2022/08/27 03:07:07;;;;;;;;;3.50;3.50;;;;;21.85;57.31;101051.78;5093308;28;45081;-82
2022/08/27 03:09:33;;;;;;;;;3.25;3.25;;;;;21.87;57.45;101060.69;5093849;28;47492;-84
2022/08/27 03:11:59;;;;;;;;;3.50;3.50;;;;;21.76;57.22;101034.88;5093803;28;45017;-83
2022/08/27 03:14:25;;;;;;;;;3.00;3.00;;;;;21.84;57.48;101052.69;5094091;28;44939;-84
2022/08/27 03:16:50;;;;;;;;;3.25;3.00;;;;;21.71;57.65;101037.59;5093835;28;45083;-84
2022/08/27 03:19:16;;;;;;;;;2.00;2.00;;;;;21.79;57.43;101045.59;5094027;28;45006;-83
2022/08/27 03:21:41;;;;;;;;;2.25;2.25;;;;;21.69;57.65;101039.41;5093946;28;44896;-83
2022/08/27 03:24:07;;;;;;;;;3.00;2.25;;;;;21.72;57.71;101051.84;5093385;28;44974;-84
2022/08/27 03:26:32;;;;;;;;;4.00;3.00;;;;;21.60;57.70;101035.00;5092074;28;45378;-84
2022/08/27 03:28:58;;;;;;;;;4.00;4.00;;;;;21.69;58.00;101059.91;5093433;28;45128;-84
2022/08/27 03:31:25;;;;;;;;;2.50;2.50;;;;;21.64;57.92;101051.91;5093760;28;45022;-83
2022/08/27 03:34:05;;;;;;;;;3.00;3.00;;;;;21.63;57.89;101059.06;5093970;28;44875;-84
2022/08/27 03:36:31;;;;;;;;;2.25;2.25;;;;;21.61;57.99;101052.81;5093418;28;46018;-82
2022/08/27 03:38:57;;;;;;;;;3.00;2.25;;;;;21.57;57.97;101044.81;5092971;28;45179;-82
2022/08/27 03:41:23;;;;;;;;;4.00;3.00;;;;;21.55;58.19;101050.19;5093555;28;45133;-83
2022/08/27 03:43:51;;;;;;;;;3.00;3.00;;;;;21.55;58.34;101047.50;5093786;28;45049;-83
2022/08/27 03:46:19;;;;;;;;;3.00;3.00;;;;;21.44;58.68;101035.97;5092899;28;45266;-84
2022/08/27 03:48:44;;;;;;;;;4.00;3.25;;;;;21.37;58.20;101021.72;5073491;28;45380;-84
2022/08/27 03:51:12;;;;;;;;;2.75;2.75;;;;;21.50;58.43;101045.75;5093735;28;45006;-84
2022/08/27 03:53:39;;;;;;;;;8.00;6.25;;;;;21.44;58.51;101027.06;5093035;28;45286;-83
2022/08/27 03:56:05;;;;;;;;;5.25;5.25;;;;;21.36;58.38;101025.31;5091601;28;45640;-84
2022/08/27 03:58:31;;;;;;;;;5.00;5.00;;;;;21.44;58.85;101033.31;5093706;28;45080;-83
2022/08/27 04:00:56;;;;;;;;;4.25;4.25;;;;;21.31;58.63;101020.88;5092998;28;45012;-83
2022/08/27 04:03:23;;;;;;;;;5.50;4.00;;;;;21.37;59.09;101040.44;5074555;28;45568;-82
2022/08/27 04:05:54;;;;;;;;;3.25;3.00;;;;;21.30;59.07;101037.81;5093035;28;45117;-83
2022/08/27 04:08:20;;;;;;;;;3.25;3.00;;;;;21.18;58.98;101019.13;5093064;28;45593;-82
2022/08/27 04:10:46;;;;;;;;;4.75;4.75;;;;;21.28;58.98;101043.16;5092231;28;45091;-83
2022/08/27 04:13:11;;;;;;;;;4.50;4.00;;;;;21.26;59.24;101042.25;5093278;28;45107;-82
2022/08/27 04:15:41;;;;;;;;;4.00;4.00;;;;;21.18;59.34;101021.81;5092560;28;53691;-82
2022/08/27 04:18:07;;;;;;;;;4.00;4.00;;;;;21.14;59.21;101018.28;5092554;28;45384;-83
2022/08/27 04:20:32;;;;;;;;;3.75;3.00;;;;;21.25;59.62;101040.50;5092888;28;45011;-83
2022/08/27 04:22:57;;;;;;;;;6.00;5.00;;;;;21.22;59.46;101036.94;5092609;28;44887;-83
2022/08/27 04:25:23;;;;;;;;;5.00;4.50;;;;;21.18;59.37;101024.47;5073345;28;46349;-82
2022/08/27 04:27:48;;;;;;;;;5.25;4.75;;;;;21.08;59.35;101015.59;5092118;28;44886;-83
2022/08/27 04:30:14;;;;;;;;;4.50;4.50;;;;;21.22;59.56;101039.59;5092720;28;44895;-83
2022/08/27 04:32:40;;;;;;;;;3.00;3.00;;;;;21.21;59.54;101036.06;5092605;28;44942;-84
2022/08/27 04:35:06;;;;;;;;;4.00;4.00;;;;;21.07;59.61;101012.03;5092524;28;45706;-83
2022/08/27 04:37:32;;;;;;;;;3.75;3.25;;;;;21.23;59.48;101033.34;5091978;28;45113;-83
2022/08/27 04:39:57;;;;;;;;;5.00;4.00;;;;;21.20;59.71;101036.94;5092890;28;45276;-82
2022/08/27 04:42:23;;;;;;;;;4.50;4.50;;;;;21.11;59.58;101027.19;5091333;28;44929;-83
2022/08/27 04:44:49;;;;;;;;;5.00;5.00;;;;;21.11;60.08;101026.28;5092325;28;45694;-82
2022/08/27 04:47:15;;;;;;;;;6.50;5.25;;;;;21.13;59.82;101030.75;5091988;28;45052;-83
2022/08/27 04:49:43;;;;;;;;;6.00;5.75;;;;;21.10;60.07;101025.41;5092461;28;45239;-83
2022/08/27 04:52:09;;;;;;;;;7.00;6.75;;;;;21.06;60.12;101025.44;5091953;28;45037;-82
2022/08/27 04:54:34;;;;;;;;;7.75;6.00;;;;;21.02;60.13;101015.63;5092435;28;45379;-82
2022/08/27 04:57:02;;;;;;;;;11.00;9.00;;;;;21.06;60.01;101028.97;5090821;28;48264;-84
2022/08/27 04:59:27;;;;;;;;;6.50;5.00;;;;;21.05;60.25;101029.88;5092104;27;45057;-82
2022/08/27 05:01:52;;;;;;;;;7.00;5.50;;;;;21.05;60.11;101029.00;5090991;28;45458;-83
2022/08/27 05:04:18;;;;;;;;;6.00;6.00;;;;;20.94;60.08;101007.66;5091974;28;49921;-84
2022/08/27 05:06:44;;;;;;;;;5.25;5.00;;;;;21.05;60.07;101027.22;5092395;28;45386;-82
2022/08/27 05:09:11;;;;;;;;;4.25;4.25;;;;;21.05;59.80;101037.03;5092254;28;45017;-83
2022/08/27 05:11:37;;;;;;;;;4.75;4.00;;;;;21.05;60.30;101034.34;5090113;28;45481;-84
2022/08/27 05:14:04;;;;;;;;;4.25;4.25;;;;;21.06;60.17;101046.81;5091824;28;49307;-84
2022/08/27 05:16:29;;;;;;;;;4.25;4.25;;;;;21.08;59.92;101035.22;5090210;28;45022;-83
2022/08/27 05:18:57;;;;;;;;;4.00;4.00;;;;;21.12;60.14;101047.66;5092088;28;45074;-83
2022/08/27 05:21:30;;;;;;;;;3.00;3.00;;;;;21.01;60.05;101017.41;5091903;28;45137;-83
2022/08/27 05:23:57;;;;;;;;;4.00;4.00;;;;;21.19;59.88;101048.56;5089475;28;47689;-83
2022/08/27 05:26:23;;;;;;;;;3.25;3.25;;;;;21.22;60.07;101050.31;5090764;28;45079;-82
2022/08/27 05:28:48;;;;;;;;;3.75;3.75;;;;;21.23;59.71;101052.06;5091985;28;45004;-84
2022/08/27 05:31:16;;;;;;;;;4.00;3.00;;;;;21.23;60.02;101052.06;5091955;28;45271;-84
2022/08/27 05:33:42;;;;;;;;;3.25;3.00;;;;;21.19;59.86;101039.66;5091486;28;45341;-83
2022/08/27 05:36:15;;;;;;;;;2.75;2.50;;;;;21.16;59.95;101042.31;5091649;28;45515;-84
2022/08/27 05:38:42;;;;;;;;;6.25;4.50;;;;;21.25;59.94;101055.66;5091447;28;44855;-84
2022/08/27 05:41:10;;;;;;;;;4.50;4.25;;;;;21.24;59.72;101057.44;5091143;28;45114;-83
2022/08/27 05:43:36;;;;;;;;;4.50;4.50;;;;;21.13;59.58;101040.53;5091782;28;45356;-83
2022/08/27 05:46:07;;;;;;;;;5.00;5.00;;;;;21.21;59.90;101059.22;5090667;28;45247;-84
2022/08/27 05:48:35;;;;;;;;;7.00;5.25;;;;;21.20;59.82;101057.44;5090232;28;45017;-84
2022/08/27 05:51:10;;;;;;;;;4.50;4.00;;;;;21.18;59.69;101064.56;5090163;28;45104;-83
2022/08/27 05:53:36;;;;;;;;;3.25;3.25;;;;;21.15;59.96;101056.59;5072647;28;48170;-83
2022/08/27 05:56:01;;;;;;;;;4.25;4.25;;;;;21.07;59.83;101053.91;5090559;28;45072;-84
2022/08/27 06:01:11;;;;;;;;;4.00;4.00;;;;;21.12;60.04;101058.34;5091750;28;45111;-83
2022/08/27 06:03:36;;;;;;;;;3.75;3.75;;;;;21.02;60.06;101042.34;5091378;28;45262;-83
2022/08/27 06:06:05;;;;;;;;;3.50;3.50;;;;;21.02;60.08;101039.69;5091513;28;45066;-84
2022/08/27 06:08:30;;;;;;;;;6.00;5.25;;;;;20.93;59.85;101023.69;5090565;28;45385;-83
2022/08/27 06:10:56;;;;;;;;;5.00;5.00;;;;;21.02;60.23;101045.03;5090553;27;45096;-83
2022/08/27 06:13:22;;;;;;;;;6.00;5.75;;;;;20.97;60.31;101036.16;5094104;28;45146;-82
2022/08/27 06:15:48;;;;;;;;;5.00;5.00;;;;;21.03;60.03;101046.81;5094313;28;45147;-83
2022/08/27 06:18:14;;;;;;;;;5.75;4.75;;;;;21.07;60.13;101052.13;5095016;28;45049;-83
2022/08/27 06:20:39;;;;;;;;;4.50;4.00;;;;;21.07;60.35;101052.13;5094819;28;45135;-82
2022/08/27 06:23:05;;;;;;;;;6.00;5.00;;;;;21.08;60.13;101058.38;5094364;28;45238;-83
2022/08/27 06:25:31;;;;;;;;;6.25;5.50;;;;;21.05;60.25;101055.72;5094322;28;44971;-84
2022/08/27 06:27:57;;;;;;;;;5.50;5.00;;;;;21.04;60.35;101054.84;5094450;28;45009;-83
2022/08/27 06:30:23;;;;;;;;;5.50;5.50;;;;;20.99;60.08;101047.75;5094777;28;44957;-82
2022/08/27 06:32:49;;;;;;;;;7.50;7.00;;;;;21.03;59.85;101050.41;5094480;28;46394;-82
2022/08/27 06:35:15;;;;;;;;;7.25;6.00;;;;;21.07;60.02;101053.91;5076101;28;45448;-83
2022/08/27 06:37:40;;;;;;;;;6.00;6.00;;;;;21.07;59.88;101054.81;5094011;28;47120;-83
2022/08/27 06:40:06;;;;;;;;;5.75;5.00;;;;;21.00;59.96;101042.38;5094867;28;45133;-83
2022/08/27 06:42:31;;;;;;;;;6.00;5.00;;;;;20.94;60.18;101030.84;5093389;28;45845;-82
2022/08/27 06:44:56;;;;;;;;;6.75;6.00;;;;;21.03;59.76;101049.47;5094625;28;44921;-83
2022/08/27 06:47:22;;;;;;;;;6.25;6.00;;;;;20.98;60.27;101045.94;5094274;28;44994;-84
2022/08/27 06:49:47;;;;;;;;;6.00;5.25;;;;;21.02;60.20;101056.59;5094203;28;45265;-82
2022/08/27 06:52:14;;;;;;;;;6.00;6.00;;;;;21.09;60.15;101063.72;5075146;28;63693;-84
2022/08/27 06:54:39;;;;;;;;;6.00;5.75;;;;;21.03;60.20;101054.81;5094187;28;45460;-83
2022/08/27 06:57:05;;;;;;;;;8.00;6.00;;;;;21.08;60.16;101061.97;5091916;28;47823;-83
2022/08/27 06:59:30;;;;;;;;;4.00;4.00;;;;;21.04;60.34;101049.50;5094883;28;45276;-82
2022/08/27 07:01:55;;;;;;;;;9.25;7.75;;;;;21.20;60.18;101076.16;5093586;28;48223;-82
2022/08/27 07:04:24;;;;;;;;;5.25;5.25;;;;;21.03;60.04;101045.06;5093981;28;44950;-83
2022/08/27 07:06:49;;;;;;;;;6.75;6.00;;;;;21.27;59.94;101078.78;5094276;28;45164;-83
2022/08/27 07:09:15;;;;;;;;;7.00;6.00;;;;;21.23;60.35;101070.78;5093857;28;45078;-83
2022/08/27 07:11:42;;;;;;;;;6.25;6.00;;;;;21.34;60.52;101090.41;5092201;28;45638;-82
2022/08/27 07:14:08;;;;;;;;;4.00;4.00;;;;;21.28;60.31;101066.31;5094268;28;45560;-82
2022/08/27 07:16:34;;;;;;;;;6.00;5.75;;;;;21.42;60.03;101087.69;5094188;28;44977;-83
2022/08/27 07:19:01;;;;;;;;;6.50;6.00;;;;;21.35;59.80;101077.03;5093645;28;44917;-82
2022/08/27 07:21:27;;;;;;;;;6.00;5.00;;;;;21.40;59.73;101086.81;5093222;28;45485;-82
2022/08/27 07:23:54;;;;;;;;;4.25;4.25;;;;;21.46;59.73;101092.13;5093261;28;45504;-82
2022/08/27 07:26:22;;;;;;;;;6.75;6.00;;;;;21.46;59.35;101092.13;5092849;28;44910;-83
2022/08/27 07:28:48;;;;;;;;;10.75;9.00;;;;;21.45;59.60;101088.56;5094376;28;45086;-84
2022/08/27 07:31:16;;;;;;;;;7.25;6.00;;;;;21.46;59.73;101092.13;5093846;28;45521;-83
2022/08/27 07:33:42;;;;;;;;;4.50;4.50;;;;;21.45;59.51;101087.69;5093360;28;45061;-82
2022/08/27 07:36:08;;;;;;;;;6.00;5.00;;;;;21.42;59.74;101076.97;5093692;28;44982;-84
2022/08/27 07:38:35;;;;;;;;;5.75;5.00;;;;;21.59;59.77;101097.41;5093573;28;45046;-83
2022/08/27 07:41:04;;;;;;;;;5.25;5.00;;;;;21.56;59.18;101078.69;5092030;28;45772;-83
2022/08/27 07:46:13;;;;;;;;;4.75;4.25;;;;;21.64;59.01;101079.56;5093564;28;44917;-82
2022/08/27 07:48:39;;;;;;;;;5.50;5.50;;;;;21.54;59.32;101064.44;5093230;28;45067;-82
2022/08/27 07:51:04;;;;;;;;;5.75;5.75;;;;;21.60;58.91;101079.56;5093281;28;45741;-83
2022/08/27 07:53:33;;;;;;;;;5.75;5.50;;;;;21.66;58.81;101100.06;5092900;28;44929;-82
2022/08/27 07:56:06;;;;;;;;;6.00;5.00;;;;;21.69;58.92;101102.72;5093001;28;45182;-83
2022/08/27 07:58:32;;;;;;;;;6.75;6.25;;;;;21.74;59.14;101111.63;5093391;28;44965;-83
2022/08/27 08:00:57;;;;;;;;;8.00;6.00;;;;;21.71;58.93;101099.13;5093210;28;45691;-82
2022/08/27 08:03:23;;;;;;;;;5.50;5.50;;;;;21.79;58.60;101099.97;5093419;28;44883;-82
2022/08/27 08:05:51;;;;;;;;;4.50;4.00;;;;;21.82;58.77;101099.06;5093554;28;45144;-83
2022/08/27 08:08:17;;;;;;;;;6.00;6.00;;;;;21.78;58.73;101095.53;5092249;28;45048;-84
2022/08/27 08:10:42;;;;;;;;;5.75;5.00;;;;;21.82;58.74;101093.72;5092380;28;45576;-83
2022/08/27 08:13:08;;;;;;;;;5.25;5.25;;;;;21.93;58.15;101109.72;5093148;28;45142;-82
2022/08/27 08:15:34;;;;;;;;;6.00;6.00;;;;;21.96;58.02;101112.34;5091998;28;60468;-82
2022/08/27 08:18:00;;;;;;;;;5.75;5.00;;;;;21.98;58.15;101116.81;5091390;28;45045;-81
2022/08/27 08:20:26;;;;;;;;;6.50;6.50;;;;;21.92;58.42;101100.81;5093064;28;45117;-82
2022/08/27 08:22:51;;;;;;;;;5.50;5.50;;;;;21.94;58.51;101095.44;5092890;28;44928;-82
2022/08/27 08:25:16;;;;;;;;;6.00;5.67;;;;;22.02;58.04;101104.28;5091265;28;55306;-83
2022/08/27 08:27:43;;;;;;;;;7.50;6.75;;;;;22.10;58.00;101116.72;5092134;28;45279;-82
2022/08/27 08:30:12;;;;;;;;;6.50;5.00;;;;;22.03;58.03;101092.69;5092519;28;46073;-83
2022/08/27 08:32:37;;;;;;;;;6.75;5.75;;;;;22.17;57.71;101100.66;5092476;28;45009;-82
2022/08/27 08:35:04;;;;;;;;;5.00;5.00;;;;;22.23;57.52;101111.34;5073866;28;44963;-83
2022/08/27 08:37:30;;;;;;;;;4.00;4.00;;;;;22.24;57.38;101114.00;5092446;28;45101;-82
2022/08/27 08:39:55;;;;;;;;;4.00;4.00;;;;;22.27;57.40;101111.31;5092483;28;45572;-82
2022/08/27 08:42:51;;;;;;;;;4.00;4.00;;;;;22.34;57.62;101110.34;5092415;28;45108;-83
2022/08/27 08:45:23;;;;;;;;;5.25;5.25;;;;;22.36;57.29;101113.91;5083047;28;45187;-84
2022/08/27 08:48:17;;;;;;;;;6.75;5.00;;;;;22.40;57.20;101115.63;5074033;28;45183;-83
2022/08/27 08:50:49;;;;;;;;;4.25;4.00;;;;;22.39;56.78;101108.50;5090320;27;45656;-82
2022/08/27 08:53:49;;;;;;;;;4.75;4.75;;;;;22.44;56.74;101110.28;5092152;28;45491;-82
2022/08/27 08:56:23;;;;;;;;;5.25;5.25;;;;;22.39;56.24;101096.91;5091231;28;45029;-83
2022/08/27 08:59:13;;;;;;;;;5.75;5.75;;;;;22.51;56.20;101104.88;5092484;28;44986;-82
2022/08/27 09:01:44;;;;;;;;;6.75;6.50;;;;;22.55;56.12;101114.63;5091610;28;46388;-82
2022/08/27 09:04:11;;;;;;;;;3.00;3.00;;;;;22.58;55.93;101113.72;5092004;28;45180;-83
2022/08/27 09:06:58;;;;;;;;;4.00;4.00;;;;;22.64;56.70;101113.66;5092007;28;44935;-82
2022/08/27 09:09:31;;;;;;;;;6.25;5.25;;;;;22.52;56.53;101077.16;5092445;28;45408;-81
2022/08/27 09:12:10;;;;;;;;;8.25;6.75;;;;;22.63;55.95;101098.50;5091995;28;45216;-81
2022/08/27 09:14:50;;;;;;;;;7.75;6.50;;;;;22.68;55.97;101099.34;5073799;28;45132;-82
2022/08/27 09:17:16;;;;;;;;;6.00;5.25;;;;;22.78;56.01;101109.06;5090307;28;44948;-82
2022/08/27 09:19:44;;;;;;;;;7.00;6.50;;;;;22.81;55.82;101118.88;5092056;28;45009;-83
2022/08/27 09:22:23;;;;;;;;;6.75;6.25;;;;;22.77;55.50;101098.38;5091821;28;45607;-82
2022/08/27 09:25:15;;;;;;;;;4.00;4.00;;;;;22.83;55.65;101103.66;5091727;28;45286;-83
2022/08/27 09:27:41;;;;;;;;;5.00;4.25;;;;;22.86;55.51;101109.00;5090855;28;45210;-83
2022/08/27 09:30:11;;;;;;;;;3.75;3.25;;;;;22.79;55.07;101091.19;5091926;28;45116;-82
2022/08/27 09:32:38;;;;;;;;;4.25;4.25;;;;;22.85;54.71;101099.16;5090791;28;46663;-83
2022/08/27 09:35:07;;;;;;;;;4.50;4.25;;;;;22.99;54.57;101116.03;5091939;28;45048;-82
2022/08/27 09:37:40;;;;;;;;;4.00;4.00;;;;;23.04;54.63;101107.94;5091986;28;45120;-84
2022/08/27 09:40:16;;;;;;;;;4.00;4.00;;;;;23.07;54.17;101108.78;5091179;28;44895;-83
2022/08/27 09:42:45;;;;;;;;;4.00;4.00;;;;;23.02;54.12;101099.91;5091884;28;45156;-82
2022/08/27 09:45:20;;;;;;;;;5.25;5.00;;;;;23.12;53.91;101112.31;5091535;28;45399;-83
2022/08/27 09:47:52;;;;;;;;;7.25;6.00;;;;;23.17;53.61;101107.78;5090568;27;45089;-83
2022/08/27 09:50:22;;;;;;;;;5.00;4.00;;;;;23.20;53.23;101109.53;5091908;28;45188;-82
2022/08/27 09:52:58;;;;;;;;;4.00;4.00;;;;;23.14;53.53;101091.72;5091637;28;45696;-84
2022/08/27 09:55:45;;;;;;;;;5.00;5.00;;;;;23.27;53.82;101115.72;5089213;28;45400;-83
2022/08/27 09:58:18;;;;;;;;;4.50;3.00;;;;;23.30;53.33;101108.53;5091778;28;44894;-83
2022/08/27 10:00:46;;;;;;;;;5.75;5.00;;;;;23.29;52.68;101097.81;5090932;28;45040;-84
2022/08/27 10:03:11;;;;;;;;;4.50;4.00;;;;;23.34;52.41;101112.94;5091090;28;46487;-82
2022/08/27 10:05:46;;;;;;;;;4.00;4.00;;;;;23.36;52.40;101113.81;5091278;28;45084;-84
2022/08/27 10:08:19;;;;;;;;;3.25;3.25;;;;;23.43;52.33;101115.50;5091301;28;44860;-83
2022/08/27 10:10:53;;;;;;;;;4.75;4.75;;;;;23.44;52.03;101109.22;5090036;28;45098;-83
2022/08/27 10:13:26;;;;;;;;;5.25;4.50;;;;;23.47;51.75;101116.38;5090905;28;45485;-83
2022/08/27 10:16:23;;;;;;;;;6.00;5.50;;;;;23.45;51.58;101107.47;5090573;28;45362;-82
2022/08/27 10:19:08;;;;;;;;;6.00;5.00;;;;;23.52;51.64;101106.47;5072755;28;45167;-83
2022/08/27 10:22:07;;;;;;;;;6.00;5.00;;;;;23.45;51.25;101091.38;5090868;28;45774;-83
2022/08/27 10:25:05;;;;;;;;;4.25;4.25;;;;;23.60;51.03;101112.63;5090999;28;46201;-84
2022/08/27 10:27:52;;;;;;;;;5.00;5.00;;;;;23.64;51.35;101106.34;5071924;28;45272;-82
2022/08/27 10:30:49;;;;;;;;;2.50;2.00;;;;;23.70;50.78;101107.19;5091568;28;45022;-83
2022/08/27 10:33:25;;;;;;;;;4.00;3.25;;;;;23.77;50.01;101108.84;5091205;28;44992;-83
2022/08/27 10:36:05;;;;;;;;;5.00;4.00;;;;;23.81;49.07;101105.22;5072209;28;46550;-83
2022/08/27 10:38:42;;;;;;;;;4.50;3.50;;;;;23.73;48.99;101070.41;5090635;28;45059;-82
2022/08/27 10:41:27;;;;;;;;;6.00;5.00;;;;;23.95;49.84;101095.16;5090564;28;45048;-83
2022/08/27 10:44:04;;;;;;;;;5.25;5.00;;;;;24.04;49.43;101104.88;5091321;28;45275;-84
2022/08/27 10:46:45;;;;;;;;;4.50;4.50;;;;;24.10;48.92;101092.25;5090684;28;45807;-84
2022/08/27 10:49:10;;;;;;;;;4.75;4.75;;;;;24.14;49.09;101090.41;5090854;28;45086;-83
2022/08/27 10:51:51;;;;;;;;;5.00;5.00;;;;;23.94;49.13;101064.75;5090480;28;45295;-84
2022/08/27 10:54:38;;;;;;;;;4.25;4.25;;;;;24.09;48.73;101071.69;5090207;28;45160;-84
2022/08/27 10:57:14;;;;;;;;;4.50;4.50;;;;;24.15;48.17;101079.63;5089150;27;45476;-84
2022/08/27 11:00:10;;;;;;;;;3.75;3.75;;;;;24.09;48.35;101035.88;5094243;28;45062;-83
2022/08/27 11:03:00;;;;;;;;;4.75;4.75;;;;;24.39;48.49;101081.06;5094523;28;45076;-85
2022/08/27 11:05:35;;;;;;;;;7.00;5.00;;;;;24.50;47.83;101080.00;5094099;28;44918;-84
2022/08/27 11:08:16;;;;;;;;;4.50;4.50;;;;;24.34;48.06;101045.31;5093915;28;45159;-83
2022/08/27 11:10:46;;;;;;;;;5.25;4.50;;;;;24.61;48.26;101075.31;5093983;28;45031;-82
2022/08/27 11:13:33;;;;;;;;;7.00;7.00;;;;;24.57;47.72;101054.75;5094425;28;45132;-82
2022/08/27 11:16:05;;;;;;;;;6.75;6.25;;;;;24.63;47.67;101052.88;5094098;28;45016;-83
2022/08/27 11:19:22;;;;;;;;;5.00;5.00;;;;;24.76;47.55;101058.88;5093589;28;45638;-82
2022/08/27 11:22:01;;;;;;;;;6.75;6.75;;;;;24.75;47.68;101037.41;5048345;28;45572;-82
2022/08/27 11:24:32;;;;;;;;;4.25;4.25;;;;;24.92;46.87;101057.66;5093940;28;45015;-82
2022/08/27 11:27:04;;;;;;;;;4.00;4.00;;;;;24.96;47.01;101054.00;5092967;28;45320;-82
2022/08/27 11:29:36;;;;;;;;;4.75;4.75;;;;;25.03;46.86;101057.47;5093579;28;45824;-82
2022/08/27 11:32:16;;;;;;;;;5.75;5.00;;;;;25.12;46.54;101064.50;5093668;28;45068;-82
2022/08/27 11:34:52;;;;;;;;;5.75;5.75;;;;;25.14;46.79;101054.59;5093908;28;45049;-82
2022/08/27 11:37:36;;;;;;;;;5.50;5.00;;;;;25.17;46.46;101047.38;5074148;28;45293;-82
2022/08/27 11:40:17;;;;;;;;;6.50;6.00;;;;;25.30;46.01;101050.66;5093202;28;45140;-82
2022/08/27 11:42:47;;;;;;;;;5.50;5.50;;;;;25.42;45.72;101049.53;5093385;28;45111;-82